createdAt,value
2018-04-11T00:02:09.737Z,6.23
2018-04-11T00:04:35.553Z,6.16
2018-04-11T00:07:01.345Z,6.17
2018-04-11T00:09:27.173Z,6.22
2018-04-11T00:11:52.961Z,6.22
2018-04-11T00:14:18.758Z,6.12
2018-04-11T00:16:44.541Z,6.12
2018-04-11T00:19:10.346Z,6.21
2018-04-11T00:21:36.143Z,6.14
2018-04-11T00:24:01.932Z,6.18
2018-04-11T00:26:27.745Z,6.19
2018-04-11T00:28:53.534Z,6.10
2018-04-11T00:31:19.331Z,6.05
2018-04-11T00:33:45.144Z,6.18
2018-04-11T00:36:10.931Z,6.27
2018-04-11T00:38:36.700Z,6.19
2018-04-11T00:41:02.523Z,6.19
2018-04-11T00:43:28.309Z,6.16
2018-04-11T00:45:54.154Z,6.19
2018-04-11T00:48:20.191Z,6.18
2018-04-11T00:50:45.978Z,6.11
2018-04-11T00:53:24.245Z,6.14
2018-04-11T00:55:50.039Z,6.14
2018-04-11T00:58:15.841Z,6.06
2018-04-11T01:00:41.634Z,6.11
2018-04-11T01:03:07.422Z,6.09
2018-04-11T01:05:33.240Z,6.08
2018-04-11T01:07:59.022Z,6.06
2018-04-11T01:10:24.801Z,6.09
2018-04-11T01:12:50.618Z,6.11
2018-04-11T01:15:16.389Z,6.10
2018-04-11T01:17:42.182Z,6.13
2018-04-11T01:20:07.997Z,6.16
2018-04-11T01:22:33.798Z,6.11
2018-04-11T01:24:59.585Z,6.20
2018-04-11T01:27:25.401Z,6.12
2018-04-11T01:29:51.195Z,6.13
2018-04-11T01:32:16.985Z,6.11
2018-04-11T01:34:42.773Z,6.13
2018-04-11T01:37:08.563Z,6.12
2018-04-11T01:39:34.347Z,6.12
2018-04-11T01:42:00.143Z,6.12
2018-04-11T01:44:25.927Z,6.00
2018-04-11T01:46:51.738Z,6.04
2018-04-11T01:49:17.553Z,6.08
2018-04-11T01:51:43.382Z,6.08
2018-04-11T01:54:09.170Z,6.01
2018-04-11T01:56:34.949Z,6.03
2018-04-11T01:59:00.794Z,6.10
2018-04-11T02:01:26.580Z,6.02
2018-04-11T02:03:52.358Z,6.08
2018-04-11T02:06:18.176Z,6.16
2018-04-11T02:08:43.973Z,6.07
2018-04-11T02:11:09.780Z,6.04
2018-04-11T02:13:35.601Z,6.08
2018-04-11T02:16:01.422Z,5.98
2018-04-11T02:18:27.221Z,6.03
2018-04-11T02:20:53.020Z,6.01
2018-04-11T02:23:18.796Z,5.93
2018-04-11T02:25:44.585Z,6.09
2018-04-11T02:28:10.381Z,6.03
2018-04-11T02:30:36.199Z,6.09
2018-04-11T02:33:02.037Z,6.07
2018-04-11T02:35:27.790Z,6.04
2018-04-11T02:37:53.571Z,6.14
2018-04-11T02:40:19.390Z,6.12
2018-04-11T02:42:45.185Z,6.14
2018-04-11T02:45:10.969Z,6.16
2018-04-11T02:47:36.759Z,6.16
2018-04-11T02:50:02.590Z,6.18
2018-04-11T02:52:28.385Z,6.26
2018-04-11T02:54:54.196Z,6.16
2018-04-11T02:57:19.997Z,6.18
2018-04-11T02:59:45.767Z,6.19
2018-04-11T03:02:11.576Z,6.24
2018-04-11T03:04:37.381Z,6.29
2018-04-11T03:07:03.202Z,6.29
2018-04-11T03:09:29.018Z,6.32
2018-04-11T03:11:54.792Z,6.28
2018-04-11T03:14:20.579Z,6.29
2018-04-11T03:16:46.382Z,6.16
2018-04-11T03:19:12.149Z,6.22
2018-04-11T03:21:37.916Z,6.14
2018-04-11T03:24:03.941Z,6.22
2018-04-11T03:26:29.744Z,6.16
2018-04-11T03:28:55.525Z,6.21
2018-04-11T03:31:21.350Z,6.19
2018-04-11T03:33:47.147Z,6.29
2018-04-11T03:36:13.118Z,6.26
2018-04-11T03:38:38.908Z,6.22
2018-04-11T03:41:04.693Z,6.21
2018-04-11T03:43:30.500Z,6.24
2018-04-11T03:45:56.273Z,6.28
2018-04-11T03:48:22.072Z,6.18
2018-04-11T03:50:47.876Z,6.30
2018-04-11T03:53:13.665Z,6.27
2018-04-11T03:55:39.469Z,6.29
2018-04-11T03:58:05.279Z,6.23
2018-04-11T04:00:31.061Z,6.32
2018-04-11T04:02:56.873Z,6.33
2018-04-11T04:05:22.665Z,6.33
2018-04-11T04:07:48.482Z,6.33
2018-04-11T04:10:14.294Z,6.28
2018-04-11T04:12:40.078Z,6.29
2018-04-11T04:15:18.545Z,6.19
2018-04-11T04:17:56.825Z,6.22
2018-04-11T04:20:36.202Z,6.15
2018-04-11T04:23:02.018Z,6.17
2018-04-11T04:25:27.822Z,6.17
2018-04-11T04:27:53.626Z,6.18
2018-04-11T04:30:20.271Z,6.12
2018-04-11T04:32:46.102Z,6.05
2018-04-11T04:35:11.905Z,6.12
2018-04-11T04:37:37.676Z,6.20
2018-04-11T04:40:03.466Z,6.23
2018-04-11T04:42:29.276Z,6.22
2018-04-11T04:44:55.056Z,6.26
2018-04-11T04:47:21.370Z,6.17
2018-04-11T04:49:47.181Z,6.09
2018-04-11T04:52:12.980Z,6.09
2018-04-11T04:54:38.784Z,6.08
2018-04-11T04:57:04.561Z,6.08
2018-04-11T04:59:30.364Z,6.19
2018-04-11T05:01:56.169Z,6.17
2018-04-11T05:04:21.978Z,6.07
2018-04-11T05:06:47.761Z,6.15
2018-04-11T05:09:13.593Z,6.19
2018-04-11T05:11:39.374Z,6.21
2018-04-11T05:14:05.156Z,6.23
2018-04-11T05:16:30.945Z,6.37
2018-04-11T05:18:56.755Z,6.27
2018-04-11T05:21:22.546Z,6.31
2018-04-11T05:23:48.329Z,6.15
2018-04-11T05:26:14.402Z,6.28
2018-04-11T05:28:40.217Z,6.26
2018-04-11T05:31:06.026Z,6.15
2018-04-11T05:33:31.845Z,6.19
2018-04-11T05:35:57.634Z,6.31
2018-04-11T05:38:30.483Z,6.35
2018-04-11T05:40:56.337Z,6.29
2018-04-11T05:43:22.142Z,6.37
2018-04-11T05:45:47.934Z,6.37
2018-04-11T05:48:13.714Z,6.35
2018-04-11T05:50:39.508Z,6.31
2018-04-11T05:53:05.339Z,6.24
2018-04-11T05:55:31.094Z,6.38
2018-04-11T05:57:56.895Z,6.39
2018-04-11T06:00:22.686Z,6.53
2018-04-11T06:02:48.513Z,6.49
2018-04-11T06:05:14.293Z,6.33
2018-04-11T06:07:40.088Z,6.32
2018-04-11T06:10:05.918Z,6.48
2018-04-11T06:12:31.704Z,6.51
2018-04-11T06:14:57.489Z,6.46
2018-04-11T06:17:23.656Z,6.42
2018-04-11T06:19:49.837Z,6.39
2018-04-11T06:22:15.626Z,6.42
2018-04-11T06:24:41.451Z,6.43
2018-04-11T06:27:07.267Z,6.41
2018-04-11T06:29:33.064Z,6.48
2018-04-11T06:31:59.143Z,6.45
2018-04-11T06:34:24.942Z,6.54
2018-04-11T06:36:50.717Z,6.68
2018-04-11T06:39:16.507Z,6.65
2018-04-11T06:41:42.295Z,6.75
2018-04-11T06:44:08.096Z,6.70
2018-04-11T06:46:33.882Z,6.59
2018-04-11T06:48:59.686Z,6.72
2018-04-11T06:51:25.527Z,6.62
2018-04-11T06:53:51.322Z,6.84
2018-04-11T06:56:17.127Z,6.83
2018-04-11T06:58:43.013Z,6.77
2018-04-11T07:01:08.815Z,6.86
2018-04-11T07:03:35.032Z,6.84
2018-04-11T07:06:01.114Z,6.85
2018-04-11T07:08:26.987Z,6.87
2018-04-11T07:10:53.093Z,6.96
2018-04-11T07:13:19.184Z,6.93
2018-04-11T07:15:45.024Z,7.04
2018-04-11T07:18:11.370Z,7.00
2018-04-11T07:20:37.192Z,6.96
2018-04-11T07:23:03.376Z,7.23
2018-04-11T07:25:29.179Z,7.48
2018-04-11T07:27:54.992Z,7.56
2018-04-11T07:30:20.838Z,7.49
2018-04-11T07:32:46.631Z,7.62
2018-04-11T07:35:12.425Z,7.70
2018-04-11T07:37:38.233Z,7.37
2018-04-11T07:40:04.074Z,7.34
2018-04-11T07:42:29.987Z,7.31
2018-04-11T07:44:55.910Z,7.22
2018-04-11T07:47:21.847Z,7.32
2018-04-11T07:49:47.665Z,7.28
2018-04-11T07:52:13.479Z,7.36
2018-04-11T07:54:39.309Z,7.34
2018-04-11T07:57:05.126Z,7.37
2018-04-11T07:59:31.795Z,7.37
2018-04-11T08:01:58.228Z,7.53
2018-04-11T08:04:24.559Z,7.48
2018-04-11T08:06:50.948Z,7.47
2018-04-11T08:09:17.123Z,7.43
2018-04-11T08:11:43.592Z,7.67
2018-04-11T08:14:09.718Z,7.94
2018-04-11T08:16:36.023Z,7.69
2018-04-11T08:19:01.999Z,7.82
2018-04-11T08:21:27.937Z,7.73
2018-04-11T08:23:54.007Z,8.86
2018-04-11T08:26:20.329Z,8.99
2018-04-11T08:28:46.868Z,9.83
2018-04-11T08:31:13.105Z,9.40
2018-04-11T08:33:39.427Z,8.67
2018-04-11T08:36:05.492Z,8.13
2018-04-11T08:38:31.888Z,8.18
2018-04-11T08:40:58.404Z,8.13
2018-04-11T08:43:24.316Z,8.14
2018-04-11T08:45:50.620Z,8.39
2018-04-11T08:48:16.813Z,9.00
2018-04-11T08:50:43.165Z,9.22
2018-04-11T08:53:09.309Z,8.52
2018-04-11T08:55:36.446Z,8.54
2018-04-11T08:58:02.303Z,8.38
2018-04-11T09:00:28.114Z,8.18
2018-04-11T09:02:53.888Z,8.30
2018-04-11T09:05:19.740Z,8.29
2018-04-11T09:07:45.778Z,8.39
2018-04-11T09:10:11.582Z,8.44
2018-04-11T09:12:37.371Z,8.45
2018-04-11T09:15:03.178Z,8.55
2018-04-11T09:17:28.986Z,8.55
2018-04-11T09:19:54.790Z,8.78
2018-04-11T09:22:20.691Z,8.75
2018-04-11T09:24:46.511Z,8.82
2018-04-11T09:27:12.293Z,8.68
2018-04-11T09:29:38.274Z,8.66
2018-04-11T09:32:04.408Z,8.67
2018-04-11T09:34:30.204Z,8.66
2018-04-11T09:36:56.015Z,8.78
2018-04-11T09:39:21.850Z,8.90
2018-04-11T09:41:47.651Z,9.01
2018-04-11T09:44:13.631Z,9.10
2018-04-11T09:46:39.456Z,8.91
2018-04-11T09:49:05.777Z,9.09
2018-04-11T09:51:31.589Z,8.73
2018-04-11T09:53:57.649Z,8.72
2018-04-11T09:56:23.650Z,8.46
2018-04-11T09:58:50.233Z,8.47
2018-04-11T10:01:18.934Z,9.25
2018-04-11T10:03:44.830Z,9.25
2018-04-11T10:06:10.680Z,10.30
2018-04-11T10:08:37.269Z,9.64
2018-04-11T10:11:03.256Z,8.86
2018-04-11T10:13:29.216Z,8.59
2018-04-11T10:15:55.076Z,8.43
2018-04-11T10:18:20.906Z,8.38
2018-04-11T10:20:46.715Z,8.68
2018-04-11T10:23:12.516Z,8.42
2018-04-11T10:25:38.347Z,8.49
2018-04-11T10:28:04.143Z,8.49
2018-04-11T10:30:29.972Z,8.42
2018-04-11T10:32:55.833Z,8.38
2018-04-11T10:35:21.635Z,8.21
2018-04-11T10:37:47.678Z,8.09
2018-04-11T10:40:16.389Z,7.89
2018-04-11T10:42:42.201Z,7.85
2018-04-11T10:45:08.002Z,7.95
2018-04-11T10:47:33.805Z,8.01
2018-04-11T10:49:59.714Z,8.22
2018-04-11T10:52:25.853Z,8.14
2018-04-11T10:54:51.651Z,8.22
2018-04-11T10:57:17.454Z,8.05
2018-04-11T10:59:43.264Z,8.21
2018-04-11T11:02:09.074Z,8.18
2018-04-11T11:04:34.882Z,8.28
2018-04-11T11:07:00.691Z,8.22
2018-04-11T11:09:26.498Z,8.34
2018-04-11T11:11:52.304Z,8.13
2018-04-11T11:14:18.109Z,8.05
2018-04-11T11:16:43.958Z,8.06
2018-04-11T11:19:09.785Z,8.15
2018-04-11T11:21:35.820Z,8.15
2018-04-11T11:24:01.941Z,8.28
2018-04-11T11:26:28.092Z,8.32
2018-04-11T11:28:53.892Z,7.94
2018-04-11T11:31:19.699Z,7.97
2018-04-11T11:33:45.518Z,8.06
2018-04-11T11:36:11.357Z,7.94
2018-04-11T11:38:37.150Z,7.81
2018-04-11T11:41:02.961Z,7.77
2018-04-11T11:43:28.777Z,7.87
2018-04-11T11:45:54.609Z,7.92
2018-04-11T11:48:20.366Z,8.03
2018-04-11T11:50:46.237Z,8.12
2018-04-11T11:53:12.024Z,8.23
2018-04-11T11:55:37.801Z,8.35
2018-04-11T11:58:03.615Z,8.22
2018-04-11T12:00:29.398Z,8.21
2018-04-11T12:02:55.225Z,8.88
2018-04-11T12:05:21.027Z,8.53
2018-04-11T12:07:46.820Z,8.03
2018-04-11T12:10:12.614Z,7.89
2018-04-11T12:12:38.432Z,7.96
2018-04-11T12:15:04.232Z,7.94
2018-04-11T12:17:30.027Z,7.92
2018-04-11T12:19:55.840Z,7.83
2018-04-11T12:22:21.611Z,7.95
2018-04-11T12:24:47.412Z,8.17
2018-04-11T12:27:13.227Z,7.82
2018-04-11T12:29:39.015Z,7.68
2018-04-11T12:32:04.818Z,7.40
2018-04-11T12:34:30.625Z,7.47
2018-04-11T12:36:56.429Z,7.44
2018-04-11T12:39:22.218Z,7.73
2018-04-11T12:41:48.050Z,7.32
2018-04-11T12:44:13.821Z,7.31
2018-04-11T12:46:39.616Z,7.38
2018-04-11T12:49:05.439Z,8.11
2018-04-11T12:51:31.254Z,7.77
2018-04-11T12:53:57.075Z,7.42
2018-04-11T12:56:22.904Z,7.71
2018-04-11T12:58:48.690Z,7.74
2018-04-11T13:01:14.490Z,7.85
2018-04-11T13:03:40.899Z,7.52
2018-04-11T13:06:06.681Z,7.38
2018-04-11T13:08:32.522Z,7.34
2018-04-11T13:10:58.329Z,7.51
2018-04-11T13:13:24.150Z,7.53
2018-04-11T13:15:50.037Z,7.55
2018-04-11T13:18:15.923Z,7.72
2018-04-11T13:20:41.717Z,7.44
2018-04-11T13:23:07.541Z,7.37
2018-04-11T13:25:33.657Z,7.33
2018-04-11T13:28:01.059Z,7.45
2018-04-11T13:30:26.893Z,7.27
2018-04-11T13:32:52.741Z,7.38
2018-04-11T13:35:20.320Z,7.38
2018-04-11T13:37:46.175Z,7.86
2018-04-11T13:40:12.345Z,7.84
2018-04-11T13:42:38.183Z,7.47
2018-04-11T13:45:04.006Z,7.25
2018-04-11T13:47:30.442Z,7.58
2018-04-11T13:49:57.103Z,8.06
2018-04-11T13:52:23.127Z,8.50
2018-04-11T13:54:50.329Z,8.23
2018-04-11T13:57:16.149Z,8.01
2018-04-11T13:59:42.475Z,8.12
2018-04-11T14:02:08.396Z,7.91
2018-04-11T14:04:34.257Z,8.06
2018-04-11T14:07:00.120Z,7.74
2018-04-11T14:09:25.969Z,7.80
2018-04-11T14:11:51.813Z,8.07
2018-04-11T14:14:17.668Z,8.46
2018-04-11T14:16:43.711Z,8.34
2018-04-11T14:19:09.540Z,8.12
2018-04-11T14:21:35.430Z,8.19
2018-04-11T14:24:02.270Z,7.89
2018-04-11T14:26:28.098Z,8.08
2018-04-11T14:28:53.939Z,8.16
2018-04-11T14:31:19.761Z,8.42
2018-04-11T14:33:45.578Z,8.35
2018-04-11T14:36:12.001Z,8.53
2018-04-11T14:38:37.848Z,9.20
2018-04-11T14:41:03.689Z,8.56
2018-04-11T14:43:29.548Z,8.68
2018-04-11T14:45:55.416Z,8.27
2018-04-11T14:48:22.274Z,8.08
2018-04-11T14:50:48.086Z,8.17
2018-04-11T14:53:14.518Z,8.14
2018-04-11T14:55:41.078Z,7.89
2018-04-11T14:58:06.899Z,8.11
2018-04-11T15:00:32.756Z,8.05
2018-04-11T15:02:58.575Z,8.12
2018-04-11T15:05:24.376Z,8.05
2018-04-11T15:07:50.188Z,8.04
2018-04-11T15:10:17.323Z,8.01
2018-04-11T15:12:43.185Z,8.10
2018-04-11T15:15:09.125Z,8.22
2018-04-11T15:17:35.894Z,8.30
2018-04-11T15:20:01.727Z,8.30
2018-04-11T15:22:27.537Z,8.08
2018-04-11T15:24:53.522Z,7.96
2018-04-11T15:27:19.961Z,7.85
2018-04-11T15:29:45.776Z,8.04
2018-04-11T15:32:11.582Z,8.65
2018-04-11T15:34:38.175Z,8.53
2018-04-11T15:37:04.025Z,8.48
2018-04-11T15:39:29.866Z,8.58
2018-04-11T15:41:55.772Z,8.33
2018-04-11T15:44:21.910Z,8.03
2018-04-11T15:46:47.757Z,7.96
2018-04-11T15:49:13.556Z,8.04
2018-04-11T15:51:39.393Z,7.92
2018-04-11T15:54:06.392Z,8.07
2018-04-11T15:56:32.231Z,7.98
2018-04-11T15:58:58.067Z,7.84
2018-04-11T16:01:23.888Z,7.81
2018-04-11T16:03:49.723Z,7.74
2018-04-11T16:06:15.620Z,7.85
2018-04-11T16:08:41.422Z,7.82
2018-04-11T16:11:07.277Z,7.80
2018-04-11T16:13:33.149Z,7.78
2018-04-11T16:15:58.981Z,7.73
2018-04-11T16:18:24.809Z,7.74
2018-04-11T16:20:50.621Z,7.72
2018-04-11T16:23:16.706Z,7.61
2018-04-11T16:25:42.530Z,7.85
2018-04-11T16:28:08.409Z,7.61
2018-04-11T16:30:34.388Z,7.61
2018-04-11T16:33:00.253Z,7.59
2018-04-11T16:35:26.333Z,7.45
2018-04-11T16:37:52.558Z,7.51
2018-04-11T16:40:18.369Z,7.51
2018-04-11T16:42:44.192Z,7.50
2018-04-11T16:45:10.050Z,7.46
2018-04-11T16:47:35.880Z,7.13
2018-04-11T16:50:01.716Z,6.98
2018-04-11T16:52:27.593Z,6.97
2018-04-11T16:54:54.014Z,6.91
2018-04-11T16:57:19.849Z,7.00
2018-04-11T16:59:45.696Z,7.13
2018-04-11T17:02:11.504Z,7.12
2018-04-11T17:04:37.311Z,6.90
2018-04-11T17:07:03.318Z,6.93
2018-04-11T17:09:29.139Z,6.73
2018-04-11T17:11:55.508Z,6.82
2018-04-11T17:14:21.605Z,6.86
2018-04-11T17:16:48.811Z,6.88
2018-04-11T17:19:14.702Z,6.89
2018-04-11T17:21:53.951Z,6.83
2018-04-11T17:24:32.740Z,7.86
2018-04-11T17:27:10.962Z,8.10
2018-04-11T17:29:49.166Z,7.23
2018-04-11T17:32:14.982Z,7.96
2018-04-11T17:34:40.790Z,7.88
2018-04-11T17:37:06.646Z,7.94
2018-04-11T17:39:32.456Z,8.17
2018-04-11T17:41:58.253Z,7.46
2018-04-11T17:44:24.177Z,7.24
2018-04-11T17:46:50.880Z,7.08
2018-04-11T17:49:16.665Z,6.95
2018-04-11T17:51:42.457Z,7.05
2018-04-11T17:54:08.269Z,9.22
2018-04-11T17:56:34.053Z,9.61
2018-04-11T17:58:59.863Z,8.59
2018-04-11T18:01:25.869Z,7.29
2018-04-11T18:03:51.672Z,7.07
2018-04-11T18:06:17.479Z,6.99
2018-04-11T18:08:43.285Z,6.86
2018-04-11T18:11:09.314Z,6.96
2018-04-11T18:13:35.153Z,6.71
2018-04-11T18:16:03.137Z,6.79
2018-04-11T18:18:28.914Z,6.79
2018-04-11T18:20:55.556Z,6.66
2018-04-11T18:23:21.411Z,6.64
2018-04-11T18:25:49.213Z,6.68
2018-04-11T18:28:15.127Z,6.67
2018-04-11T18:30:41.756Z,6.67
2018-04-11T18:33:07.649Z,6.55
2018-04-11T18:35:33.511Z,6.58
2018-04-11T18:37:59.305Z,6.70
2018-04-11T18:40:25.138Z,6.67
2018-04-11T18:42:50.950Z,6.78
2018-04-11T18:45:18.445Z,6.72
2018-04-11T18:47:44.295Z,6.62
2018-04-11T18:50:10.222Z,6.66
2018-04-11T18:52:36.042Z,6.67
2018-04-11T18:55:01.903Z,6.64
2018-04-11T18:57:27.740Z,6.69
2018-04-11T18:59:54.586Z,6.61
2018-04-11T19:02:20.388Z,6.52
2018-04-11T19:04:46.838Z,6.55
2018-04-11T19:07:12.749Z,6.67
2018-04-11T19:09:38.550Z,6.53
2018-04-11T19:12:04.455Z,6.57
2018-04-11T19:14:31.094Z,6.58
2018-04-11T19:16:57.040Z,6.57
2018-04-11T19:19:22.869Z,6.58
2018-04-11T19:21:48.690Z,6.71
2018-04-11T19:24:15.511Z,6.78
2018-04-11T19:26:42.210Z,6.73
2018-04-11T19:29:10.066Z,6.66
2018-04-11T19:31:35.893Z,6.73
2018-04-11T19:34:01.984Z,6.76
2018-04-11T19:36:27.794Z,6.68
2018-04-11T19:38:54.838Z,6.69
2018-04-11T19:41:20.643Z,6.62
2018-04-11T19:43:47.224Z,6.55
2018-04-11T19:46:13.738Z,6.54
2018-04-11T19:48:39.614Z,6.54
2018-04-11T19:51:05.464Z,6.65
2018-04-11T19:53:31.273Z,6.69
2018-04-11T19:55:57.242Z,6.63
2018-04-11T19:58:23.126Z,6.74
2018-04-11T20:00:48.965Z,6.82
2018-04-11T20:03:15.764Z,6.87
2018-04-11T20:05:41.939Z,8.88
2018-04-11T20:08:07.743Z,8.75
2018-04-11T20:10:34.565Z,9.13
2018-04-11T20:13:00.373Z,8.38
2018-04-11T20:15:28.208Z,8.84
2018-04-11T20:17:54.580Z,9.12
2018-04-11T20:20:21.051Z,8.55
2018-04-11T20:22:47.813Z,9.34
2018-04-11T20:25:15.421Z,8.82
2018-04-11T20:27:42.203Z,8.73
2018-04-11T20:30:08.029Z,9.00
2018-04-11T20:32:33.950Z,8.48
2018-04-11T20:34:59.791Z,7.90
2018-04-11T20:37:25.736Z,7.75
2018-04-11T20:39:51.565Z,7.08
2018-04-11T20:42:17.363Z,6.82
2018-04-11T20:44:43.163Z,6.81
2018-04-11T20:47:08.988Z,8.92
2018-04-11T20:49:35.438Z,9.33
2018-04-11T20:52:02.118Z,9.06
2018-04-11T20:54:27.927Z,7.51
2018-04-11T20:56:54.827Z,6.98
2018-04-11T20:59:20.625Z,6.80
2018-04-11T21:01:47.024Z,6.59
2018-04-11T21:04:12.840Z,6.59
2018-04-11T21:06:39.364Z,6.57
2018-04-11T21:09:05.707Z,6.37
2018-04-11T21:11:31.574Z,6.48
2018-04-11T21:13:57.407Z,6.43
2018-04-11T21:16:23.223Z,6.50
2018-04-11T21:18:49.058Z,6.49
2018-04-11T21:21:14.871Z,6.44
2018-04-11T21:23:42.490Z,6.40
2018-04-11T21:26:08.994Z,6.91
2018-04-11T21:28:35.038Z,6.84
2018-04-11T21:31:02.629Z,6.87
2018-04-11T21:33:28.465Z,6.88
2018-04-11T21:35:54.281Z,6.87
2018-04-11T21:38:20.070Z,6.85
2018-04-11T21:40:45.948Z,6.54
2018-04-11T21:43:12.338Z,6.47
2018-04-11T21:45:39.180Z,6.34
2018-04-11T21:48:05.428Z,6.01
2018-04-11T21:50:31.794Z,5.99
2018-04-11T21:52:57.685Z,5.99
2018-04-11T21:55:24.337Z,6.03
2018-04-11T21:57:50.161Z,5.89
2018-04-11T22:00:15.962Z,5.85
2018-04-11T22:02:42.450Z,5.78
2018-04-11T22:05:08.261Z,5.66
2018-04-11T22:07:34.188Z,5.71
2018-04-11T22:10:02.191Z,5.58
2018-04-11T22:12:28.008Z,5.69
2018-04-11T22:14:53.800Z,5.66
2018-04-11T22:17:19.594Z,5.44
2018-04-11T22:19:45.607Z,5.55
2018-04-11T22:22:11.384Z,5.52
2018-04-11T22:24:37.222Z,5.47
2018-04-11T22:27:03.106Z,5.41
2018-04-11T22:29:28.907Z,5.45
2018-04-11T22:31:54.724Z,5.37
2018-04-11T22:34:20.565Z,5.34
2018-04-11T22:36:47.193Z,5.40
2018-04-11T22:39:12.999Z,5.32
2018-04-11T22:41:38.829Z,5.32
2018-04-11T22:44:06.059Z,5.77
2018-04-11T22:46:31.878Z,5.76
2018-04-11T22:48:57.938Z,5.71
2018-04-11T22:51:24.494Z,5.63
2018-04-11T22:53:50.518Z,5.67
2018-04-11T22:56:16.401Z,5.58
2018-04-11T22:58:43.090Z,5.40
2018-04-11T23:01:08.874Z,5.41
2018-04-11T23:03:34.681Z,5.42
2018-04-11T23:06:00.490Z,5.35
2018-04-11T23:08:26.300Z,5.27
2018-04-11T23:10:52.167Z,5.20
2018-04-11T23:13:18.476Z,5.29
2018-04-11T23:15:44.296Z,5.28
2018-04-11T23:18:10.139Z,5.30
2018-04-11T23:20:35.987Z,5.27
2018-04-11T23:23:02.423Z,5.25
2018-04-11T23:25:28.414Z,5.88
2018-04-11T23:27:54.244Z,5.55
2018-04-11T23:30:20.730Z,5.38
2018-04-11T23:32:47.712Z,5.21
2018-04-11T23:35:14.477Z,5.08
2018-04-11T23:37:40.285Z,5.09
2018-04-11T23:40:08.824Z,5.03
2018-04-11T23:42:34.640Z,5.01
2018-04-11T23:45:01.151Z,5.11
2018-04-11T23:47:27.029Z,5.12
2018-04-11T23:49:52.850Z,5.11
2018-04-11T23:52:18.654Z,5.05
2018-04-11T23:54:44.458Z,5.08
2018-04-11T23:57:10.842Z,5.01
2018-04-11T23:59:36.662Z,5.06
